Hlavní strana
METAR-TAF:

METAR-TAF

Letiště :

Whiting_Field_Naval_Air_Station_South_Airport

Milton, Florida, Spojené státy americké

zeměpisná šířka: 30-41-50N, zeměpisná délka: 087-01-12W, výška: 54 m

Aktuální stav počasí

Zpráva byla vytvořena před 9 hodinami a 53 minutami, v 15:48 UTC
Východojihovýchodní vítr 11 kt
Teplota 17°C
Vlhkost vzduchu 82%
Tlak 1026 hPa
Viditelnost: 16.1 km
Oblačno až skoro zataženo ve výšce 1300 ft
Oblačno až skoro zataženo ve výšce 2600 ft
Zataženo ve výšce 3500 ft

METAR: KNDZ 181548Z AUTO 12011KT 10SM BKN013 BKN026 OVC035 17/14 A3029 RMK AO2 RAB28E38 P0000 T01670139 $

Čas: 19:41 (01:41 UTC)


TAF: chybějící

Stav a předpovědi počasí z více než 4 000 letišť (zprávy METAR a TAF).

Červené a žluté tečky na mapě představují dostupné meteorologické stanice.

Když kurzor umístíte na tečku, zobrazí se název stanice.

Pak kliknutím zobrazíte stav a předpověď počasí.

Chcete-li změnit mapu, kliknutím na zelené tlačítko se znaménkem +mapu přiblížíte, kliknutím na zelené tlačítko se znaménkem – mapu oddálíte a kliknutím na zelené šipky přejdete na sousední mapy.


METAR-TAF: